This is the latest recevied weather packets stored in our database for station/object HS1WDC-1. If no packets are shown the sender has not sent any weather packets the latest 10 day(s).
| Time | Temp. | Humidity | Pressure | Rain* | Wind** | Luminosity | Snow |
|---|---|---|---|---|---|---|---|
| 1777966126 | 40.56° C | 39% | 1006 hPa | - | - | 0 W/m² | - |
| 1777965202 | 40.56° C | 39% | 1007 hPa | - | - | 0 W/m² | - |
| 1777964278 | 40.56° C | 40% | 1007 hPa | - | - | 0 W/m² | - |
| 1777962429 | 40° C | 40% | 1008 hPa | - | - | 0 W/m² | - |
| 1777961505 | 40.56° C | 40% | 1008 hPa | - | - | 0 W/m² | - |
| 1777960581 | 40.56° C | 40% | 1009 hPa | - | - | 0 W/m² | - |
| 1777959657 | 39.44° C | 43% | 1009 hPa | - | - | 0 W/m² | - |
| 1777958733 | 39.44° C | 44% | 1009 hPa | - | - | 0 W/m² | - |
| 1777957808 | 38.89° C | 45% | 1010 hPa | - | - | 0 W/m² | - |
| 1777956884 | 38.33° C | 47% | 1010 hPa | - | - | 0 W/m² | - |
| 1777955959 | 37.78° C | 47% | 1010 hPa | - | - | 0 W/m² | - |
| 1777955035 | 36.67° C | 50% | 1010 hPa | - | - | 0 W/m² | - |
| 1777954111 | 37.22° C | 48% | 1010 hPa | - | - | 0 W/m² | - |
| 1777943019 | 33.89° C | 59% | 1010 hPa | - | - | 0 W/m² | - |
| 1777940246 | 32.22° C | 63% | 1010 hPa | - | - | 0 W/m² | - |
| 1777939322 | 32.22° C | 64% | 1010 hPa | - | - | 0 W/m² | - |
| 1777931927 | 32.78° C | 55% | 1008 hPa | - | - | 0 W/m² | - |
| 1777931003 | 33.33° C | 55% | 1008 hPa | - | - | 0 W/m² | - |
| 1777930078 | 32.78° C | 56% | 1008 hPa | - | - | 0 W/m² | - |
| 1777928230 | 33.33° C | 57% | 1009 hPa | - | - | 0 W/m² | - |
| 1777924507 | 33.33° C | 60% | 1010 hPa | - | - | 0 W/m² | - |
| 1777921734 | 33.89° C | 59% | 1010 hPa | - | - | 0 W/m² | - |
| 1777920810 | 34.44° C | 57% | 1009 hPa | - | - | 0 W/m² | - |
| 1777919885 | 34.44° C | 58% | 1010 hPa | - | - | 0 W/m² | - |
| 1777918961 | 35° C | 58% | 1010 hPa | - | - | 0 W/m² | - |
* Rain since midnight (hover to see other rain measurements)
** Current wind speed in m/s (hover to see current wind gust speed)